Time;durP1;ratioP1;P1;durP2;ratioP2;P2;SDS_P1;SDS_P2;PMS_P1;PMS_P2;Temp;Humidity;BMP_temperature;BMP_pressure;BME280_temperature;BME280_humidity;BME280_pressure;Samples;Min_cycle;Max_cycle;Signal;HPM_P1;HPM_P2
2022/08/10 00:02:20;;;;;;;4.30;3.75;;;;;;;;;;5022708;28;20095;-85
2022/08/10 00:04:45;;;;;;;6.30;3.92;;;;;;;;;;5001950;28;20026;-88
2022/08/10 00:07:10;;;;;;;6.13;3.80;;;;;;;;;;5013514;28;20064;-85
2022/08/10 00:09:36;;;;;;;4.68;3.78;;;;;;;;;;5016341;28;20034;-85
2022/08/10 00:12:01;;;;;;;4.63;3.60;;;;;;;;;;5017248;28;20096;-85
2022/08/10 00:14:27;;;;;;;4.00;3.60;;;;;;;;;;5021657;28;20052;-84
2022/08/10 00:16:52;;;;;;;6.47;3.53;;;;;;;;;;5018273;28;20509;-85
2022/08/10 00:19:18;;;;;;;5.28;3.80;;;;;;;;;;5018939;28;20033;-84
2022/08/10 00:21:45;;;;;;;4.05;3.63;;;;;;;;;;5023921;28;20052;-85
2022/08/10 00:24:10;;;;;;;4.20;3.53;;;;;;;;;;5009862;28;20030;-86
2022/08/10 00:26:35;;;;;;;6.70;3.40;;;;;;;;;;4997905;28;20522;-85
2022/08/10 00:29:01;;;;;;;4.43;3.63;;;;;;;;;;5022640;28;20046;-85
2022/08/10 00:31:26;;;;;;;7.45;3.72;;;;;;;;;;5023821;28;20022;-85
2022/08/10 00:33:52;;;;;;;6.15;4.18;;;;;;;;;;5018913;28;20498;-85
2022/08/10 00:36:17;;;;;;;5.88;3.72;;;;;;;;;;5005057;28;20021;-84
2022/08/10 00:38:42;;;;;;;4.35;3.60;;;;;;;;;;5021539;28;20030;-85
2022/08/10 00:41:08;;;;;;;5.28;3.67;;;;;;;;;;5022232;28;20453;-85
2022/08/10 00:43:33;;;;;;;7.57;3.88;;;;;;;;;;5022673;28;20108;-85
2022/08/10 00:45:59;;;;;;;5.28;3.30;;;;;;;;;;5020852;28;20022;-85
2022/08/10 00:48:24;;;;;;;4.57;3.45;;;;;;;;;;5022146;28;20528;-84
2022/08/10 00:50:50;;;;;;;6.30;3.97;;;;;;;;;;5023631;28;20041;-83
2022/08/10 00:53:15;;;;;;;5.97;3.70;;;;;;;;;;5020132;28;20025;-85
2022/08/10 00:55:41;;;;;;;7.05;3.95;;;;;;;;;;5021266;28;20026;-84
2022/08/10 00:58:07;;;;;;;5.07;3.33;;;;;;;;;;5019212;28;20496;-85
2022/08/10 01:00:32;;;;;;;3.95;3.30;;;;;;;;;;5002940;28;20145;-84
2022/08/10 01:02:58;;;;;;;4.97;3.65;;;;;;;;;;5019271;28;20103;-85
2022/08/10 01:05:23;;;;;;;4.97;3.80;;;;;;;;;;5022800;28;20026;-84
2022/08/10 01:08:30;;;;;;;4.55;3.40;;;;;;;;;;5022047;28;20026;-85
2022/08/10 01:11:13;;;;;;;4.22;3.50;;;;;;;;;;4918879;29;20036;-83
2022/08/10 01:14:18;;;;;;;4.30;3.35;;;;;;;;;;5015225;28;20038;-84
2022/08/10 01:16:56;;;;;;;5.20;3.67;;;;;;;;;;5010410;28;20037;-87
2022/08/10 01:19:46;;;;;;;5.18;3.83;;;;;;;;;;5025683;28;20425;-85
2022/08/10 01:22:30;;;;;;;;;;;;;;;;;;5025735;28;20381;-85
2022/08/10 01:25:09;;;;;;;5.15;3.63;;;;;;;;;;5028196;28;20452;-84
2022/08/10 01:27:43;;;;;;;3.42;3.03;;;;;;;;;;5023579;28;20048;-84
2022/08/10 01:30:12;;;;;;;5.78;3.80;;;;;;;;;;5026448;28;20039;-84
2022/08/10 01:32:40;;;;;;;3.78;3.13;;;;;;;;;;5024945;28;20034;-84
2022/08/10 01:35:08;;;;;;;5.60;3.80;;;;;;;;;;5020345;28;20496;-84
2022/08/10 01:37:41;;;;;;;4.15;3.42;;;;;;;;;;5014060;28;20065;-87
2022/08/10 01:40:12;;;;;;;7.20;3.47;;;;;;;;;;5023985;28;20108;-85
2022/08/10 01:42:39;;;;;;;4.63;3.28;;;;;;;;;;5024542;28;20026;-85
2022/08/10 01:45:07;;;;;;;5.43;3.60;;;;;;;;;;5026119;28;20482;-86
2022/08/10 01:50:29;;;;;;;4.00;3.45;;;;;;;;;;5023151;28;20496;-85
2022/08/10 01:53:01;;;;;;;5.00;3.65;;;;;;;;;;5004827;28;20048;-84
2022/08/10 01:55:29;;;;;;;4.25;3.67;;;;;;;;;;5018636;28;20017;-84
2022/08/10 01:57:56;;;;;;;5.90;3.53;;;;;;;;;;5011270;28;20026;-85
2022/08/10 02:00:23;;;;;;;6.18;3.78;;;;;;;;;;5005768;28;20092;-85
2022/08/10 02:02:51;;;;;;;4.25;3.50;;;;;;;;;;5006168;28;20478;-84
2022/08/10 02:05:18;;;;;;;5.05;3.45;;;;;;;;;;5019938;28;20382;-84
2022/08/10 02:07:46;;;;;;;4.85;3.38;;;;;;;;;;5006275;28;20030;-84
2022/08/10 02:10:15;;;;;;;4.32;3.42;;;;;;;;;;5008616;28;20037;-83
2022/08/10 02:12:43;;;;;;;5.68;3.70;;;;;;;;;;5022630;28;20501;-84
2022/08/10 02:15:15;;;;;;;4.90;4.00;;;;;;;;;;5022775;28;20536;-84
2022/08/10 02:17:47;;;;;;;4.78;3.67;;;;;;;;;;5004811;28;20021;-85
2022/08/10 02:20:19;;;;;;;5.30;3.92;;;;;;;;;;5018266;28;20120;-85
2022/08/10 02:22:48;;;;;;;4.80;4.15;;;;;;;;;;5022552;28;20421;-84
2022/08/10 02:25:16;;;;;;;5.32;4.20;;;;;;;;;;5019468;28;20405;-83
2022/08/10 02:27:42;;;;;;;4.57;3.72;;;;;;;;;;5020608;28;20485;-85
2022/08/10 02:30:11;;;;;;;5.53;3.92;;;;;;;;;;5009444;28;20030;-85
2022/08/10 02:32:37;;;;;;;4.95;3.78;;;;;;;;;;4999295;28;20033;-84
2022/08/10 02:35:06;;;;;;;7.32;3.90;;;;;;;;;;5020006;28;20018;-84
2022/08/10 02:37:34;;;;;;;5.80;4.18;;;;;;;;;;5023386;28;20384;-85
2022/08/10 02:39:59;;;;;;;5.40;4.00;;;;;;;;;;5018440;28;20045;-85
2022/08/10 02:42:30;;;;;;;6.07;3.90;;;;;;;;;;5016833;28;20101;-85
2022/08/10 02:45:32;;;;;;;6.07;4.18;;;;;;;;;;5024412;28;20026;-85
2022/08/10 02:48:02;;;;;;;5.28;4.43;;;;;;;;;;5023052;28;20111;-84
2022/08/10 02:50:40;;;;;;;5.00;3.95;;;;;;;;;;5010082;28;20469;-85
2022/08/10 02:53:20;;;;;;;5.03;4.00;;;;;;;;;;5001901;28;20120;-84
2022/08/10 02:55:57;;;;;;;4.78;3.80;;;;;;;;;;5003284;28;20466;-84
2022/08/10 02:58:43;;;;;;;5.15;4.25;;;;;;;;;;4976473;28;1126405;-87
2022/08/10 03:01:13;;;;;;;4.75;3.90;;;;;;;;;;5017483;28;20041;-85
2022/08/10 03:04:00;;;;;;;5.03;4.53;;;;;;;;;;5011870;28;20148;-83
2022/08/10 03:06:33;;;;;;;4.70;3.92;;;;;;;;;;5020938;28;20029;-85
2022/08/10 03:09:01;;;;;;;5.47;4.30;;;;;;;;;;4999060;28;20026;-84
2022/08/10 03:11:29;;;;;;;5.07;4.15;;;;;;;;;;5025194;28;20030;-85
2022/08/10 03:13:58;;;;;;;5.20;4.07;;;;;;;;;;4998297;28;20557;-85
2022/08/10 03:16:26;;;;;;;5.10;4.57;;;;;;;;;;5010508;28;20021;-85
2022/08/10 03:18:53;;;;;;;4.75;4.05;;;;;;;;;;5009014;28;20036;-84
2022/08/10 03:21:20;;;;;;;5.97;4.40;;;;;;;;;;5017536;28;20032;-84
2022/08/10 03:23:47;;;;;;;4.22;3.75;;;;;;;;;;5014700;28;20075;-84
2022/08/10 03:26:15;;;;;;;4.90;4.38;;;;;;;;;;5015155;28;20362;-85
2022/08/10 03:28:42;;;;;;;7.47;4.50;;;;;;;;;;5020863;28;20441;-84
2022/08/10 03:31:08;;;;;;;4.95;4.20;;;;;;;;;;5005234;28;20022;-85
2022/08/10 03:33:37;;;;;;;6.35;4.35;;;;;;;;;;5014828;28;20048;-84
2022/08/10 03:36:03;;;;;;;5.13;3.95;;;;;;;;;;5008443;28;20026;-86
2022/08/10 03:38:29;;;;;;;6.63;4.68;;;;;;;;;;5018915;28;20411;-87
2022/08/10 03:40:57;;;;;;;5.97;4.63;;;;;;;;;;5008181;28;20053;-84
2022/08/10 03:43:24;;;;;;;5.25;3.88;;;;;;;;;;5009697;28;20563;-84
2022/08/10 03:45:56;;;;;;;6.35;4.03;;;;;;;;;;4996086;28;20466;-83
2022/08/10 03:48:24;;;;;;;6.97;4.40;;;;;;;;;;5000950;28;20029;-84
2022/08/10 03:50:50;;;;;;;4.30;3.88;;;;;;;;;;5021862;28;20461;-85
2022/08/10 03:53:17;;;;;;;5.65;4.78;;;;;;;;;;5010798;28;20052;-86
2022/08/10 03:55:43;;;;;;;6.88;4.28;;;;;;;;;;5011881;28;20018;-83
2022/08/10 03:58:10;;;;;;;7.03;4.78;;;;;;;;;;5016919;28;20082;-87
2022/08/10 04:00:36;;;;;;;6.95;4.85;;;;;;;;;;5010876;28;20061;-86
2022/08/10 04:03:03;;;;;;;5.20;4.70;;;;;;;;;;4990162;28;20470;-85
2022/08/10 04:05:29;;;;;;;5.03;4.00;;;;;;;;;;5003274;28;20502;-85
2022/08/10 04:07:55;;;;;;;5.15;4.50;;;;;;;;;;5002821;28;20100;-86
2022/08/10 04:10:21;;;;;;;6.35;4.10;;;;;;;;;;5000898;28;20022;-84
2022/08/10 04:12:46;;;;;;;5.25;4.18;;;;;;;;;;5006159;28;20032;-85
2022/08/10 04:15:12;;;;;;;6.68;4.28;;;;;;;;;;5004582;28;20101;-85
2022/08/10 04:17:37;;;;;;;5.35;4.28;;;;;;;;;;5008171;28;20080;-85
2022/08/10 04:20:05;;;;;;;4.85;4.40;;;;;;;;;;5010630;28;20053;-84
2022/08/10 04:22:32;;;;;;;5.95;4.47;;;;;;;;;;5009872;28;20478;-85
2022/08/10 04:25:01;;;;;;;6.40;4.65;;;;;;;;;;5011475;28;20069;-84
2022/08/10 04:27:28;;;;;;;5.30;4.32;;;;;;;;;;5006046;28;20039;-86
2022/08/10 04:29:54;;;;;;;5.60;4.38;;;;;;;;;;5010948;28;20034;-85
2022/08/10 04:32:21;;;;;;;6.03;4.53;;;;;;;;;;5007881;28;20022;-85
2022/08/10 04:34:47;;;;;;;5.65;4.88;;;;;;;;;;5009646;28;20026;-86
2022/08/10 04:37:18;;;;;;;7.40;5.60;;;;;;;;;;4993655;28;20022;-85
2022/08/10 04:39:44;;;;;;;5.65;4.90;;;;;;;;;;5004021;28;20021;-84
2022/08/10 04:42:09;;;;;;;7.10;4.95;;;;;;;;;;5003967;28;20096;-85
2022/08/10 04:44:35;;;;;;;6.45;5.00;;;;;;;;;;5007362;28;20036;-84
2022/08/10 04:47:00;;;;;;;7.55;4.90;;;;;;;;;;5010191;28;20056;-86
2022/08/10 04:49:26;;;;;;;6.35;5.38;;;;;;;;;;5007942;28;20021;-86
2022/08/10 04:51:51;;;;;;;7.20;5.32;;;;;;;;;;5010303;28;20044;-86
2022/08/10 04:54:17;;;;;;;8.25;5.53;;;;;;;;;;5007784;28;20048;-85
2022/08/10 04:56:42;;;;;;;5.97;4.82;;;;;;;;;;5006949;28;20184;-85
2022/08/10 04:59:10;;;;;;;6.68;5.10;;;;;;;;;;5009889;28;20050;-86
2022/08/10 05:01:37;;;;;;;8.93;5.65;;;;;;;;;;5022330;28;20029;-83
2022/08/10 05:04:02;;;;;;;8.15;5.93;;;;;;;;;;5021450;28;20076;-84
2022/08/10 05:06:28;;;;;;;6.15;5.43;;;;;;;;;;5020796;28;20022;-84
2022/08/10 05:08:53;;;;;;;7.38;6.28;;;;;;;;;;5022485;28;20025;-86
2022/08/10 05:11:19;;;;;;;6.93;5.35;;;;;;;;;;5018443;28;20037;-86
2022/08/10 05:13:44;;;;;;;8.05;5.70;;;;;;;;;;5020352;28;20029;-84
2022/08/10 05:16:10;;;;;;;7.70;5.78;;;;;;;;;;5020222;28;20067;-84
2022/08/10 05:18:35;;;;;;;11.50;5.70;;;;;;;;;;5022726;28;20048;-85
2022/08/10 05:21:01;;;;;;;6.72;5.45;;;;;;;;;;5016937;28;20371;-83
2022/08/10 05:23:27;;;;;;;6.78;5.57;;;;;;;;;;5021586;28;20037;-83
2022/08/10 05:25:52;;;;;;;9.90;5.85;;;;;;;;;;5009639;28;20038;-81
2022/08/10 05:28:18;;;;;;;15.82;8.23;;;;;;;;;;5013555;28;20029;-83
2022/08/10 05:30:43;;;;;;;9.02;8.13;;;;;;;;;;5016586;28;20026;-86
2022/08/10 05:33:08;;;;;;;7.63;6.22;;;;;;;;;;5019158;28;20466;-85
2022/08/10 05:35:34;;;;;;;7.03;6.20;;;;;;;;;;5017372;28;20024;-84
2022/08/10 05:38:01;;;;;;;10.63;7.22;;;;;;;;;;5019826;28;20022;-84
2022/08/10 05:40:27;;;;;;;7.97;6.43;;;;;;;;;;5019066;28;20433;-84
2022/08/10 05:42:53;;;;;;;8.23;6.45;;;;;;;;;;5015062;28;20037;-84
2022/08/10 05:45:22;;;;;;;11.52;7.47;;;;;;;;;;5019016;28;20076;-84
2022/08/10 05:47:48;;;;;;;8.77;7.03;;;;;;;;;;5017058;28;20038;-85
2022/08/10 05:50:16;;;;;;;8.32;6.30;;;;;;;;;;5019417;28;20030;-83
2022/08/10 05:52:42;;;;;;;6.93;5.88;;;;;;;;;;5011660;28;20116;-85
2022/08/10 05:55:08;;;;;;;8.25;6.78;;;;;;;;;;5022978;28;20116;-85
2022/08/10 05:57:35;;;;;;;8.82;6.95;;;;;;;;;;5018365;28;20025;-84
2022/08/10 06:00:05;;;;;;;8.70;6.57;;;;;;;;;;5016809;28;20045;-84
2022/08/10 06:02:32;;;;;;;9.38;7.38;;;;;;;;;;5012161;28;20095;-87
2022/08/10 06:05:04;;;;;;;12.07;7.53;;;;;;;;;;5023527;28;20413;-87
2022/08/10 06:07:30;;;;;;;9.10;7.22;;;;;;;;;;5016324;28;20026;-86
2022/08/10 06:09:57;;;;;;;10.60;7.20;;;;;;;;;;5012788;28;20036;-82
2022/08/10 06:12:26;;;;;;;8.40;7.22;;;;;;;;;;5010666;28;20488;-86
2022/08/10 06:14:59;;;;;;;9.20;7.27;;;;;;;;;;5018581;28;20448;-84
2022/08/10 06:17:27;;;;;;;14.43;7.03;;;;;;;;;;5017269;28;20083;-85
2022/08/10 06:19:52;;;;;;;9.50;6.40;;;;;;;;;;5013761;28;20034;-86
2022/08/10 06:22:18;;;;;;;8.02;6.70;;;;;;;;;;5015198;28;20380;-83
2022/08/10 06:24:45;;;;;;;8.05;6.97;;;;;;;;;;5012900;28;20078;-84
2022/08/10 06:27:12;;;;;;;8.40;6.60;;;;;;;;;;5014767;28;20104;-84
2022/08/10 06:29:42;;;;;;;11.02;6.97;;;;;;;;;;5023259;28;20389;-82
2022/08/10 06:32:10;;;;;;;8.70;6.70;;;;;;;;;;5023412;28;20025;-83
2022/08/10 06:34:42;;;;;;;10.38;6.72;;;;;;;;;;5021992;28;20057;-83
2022/08/10 06:37:08;;;;;;;12.43;7.50;;;;;;;;;;5016273;28;20081;-83
2022/08/10 06:39:34;;;;;;;11.93;8.48;;;;;;;;;;5015801;28;20021;-82
2022/08/10 06:42:18;;;;;;;8.75;7.57;;;;;;;;;;5015009;28;20042;-84
2022/08/10 06:45:18;;;;;;;9.30;7.82;;;;;;;;;;5020607;28;20081;-82
2022/08/10 06:47:49;;;;;;;10.85;7.97;;;;;;;;;;4991765;28;20046;-83
2022/08/10 06:50:19;;;;;;;10.93;7.10;;;;;;;;;;5013223;28;20476;-83
2022/08/10 06:52:46;;;;;;;8.57;7.68;;;;;;;;;;5017424;28;20025;-83
2022/08/10 06:55:12;;;;;;;11.13;8.07;;;;;;;;;;5021025;28;20112;-84
2022/08/10 06:57:39;;;;;;;8.52;7.15;;;;;;;;;;5020176;28;20104;-81
2022/08/10 07:00:06;;;;;;;9.15;6.50;;;;;;;;;;5015648;28;20120;-82
2022/08/10 07:02:43;;;;;;;9.60;7.72;;;;;;;;;;5013280;28;20124;-83
2022/08/10 07:05:14;;;;;;;9.52;8.05;;;;;;;;;;5016676;28;20076;-83
2022/08/10 07:07:42;;;;;;;8.40;7.47;;;;;;;;;;5007318;28;20367;-84
2022/08/10 07:10:08;;;;;;;12.70;10.60;;;;;;;;;;5007014;28;20056;-81
2022/08/10 07:12:35;;;;;;;7.13;6.40;;;;;;;;;;5011294;28;20445;-83
2022/08/10 07:15:01;;;;;;;8.52;7.38;;;;;;;;;;5015325;28;20041;-85
2022/08/10 07:17:29;;;;;;;8.00;7.20;;;;;;;;;;5012197;28;20062;-84
2022/08/10 07:19:57;;;;;;;9.43;7.78;;;;;;;;;;5009670;28;20088;-85
2022/08/10 07:22:28;;;;;;;9.20;7.20;;;;;;;;;;5013588;28;20023;-86
2022/08/10 07:24:56;;;;;;;8.88;7.03;;;;;;;;;;5000750;28;20045;-85
2022/08/10 07:27:23;;;;;;;9.65;7.53;;;;;;;;;;5012897;28;20466;-84
2022/08/10 07:29:50;;;;;;;10.00;8.27;;;;;;;;;;4994593;28;20030;-85
2022/08/10 07:32:18;;;;;;;10.25;7.43;;;;;;;;;;5018238;28;20057;-82
2022/08/10 07:34:45;;;;;;;9.90;7.93;;;;;;;;;;5007075;28;20101;-89
2022/08/10 07:37:12;;;;;;;9.93;7.53;;;;;;;;;;5012735;28;20454;-87
2022/08/10 07:39:42;;;;;;;11.05;8.95;;;;;;;;;;5018882;28;20026;-83
2022/08/10 07:42:08;;;;;;;;;;;;;;;;;;4995737;28;20041;-86
2022/08/10 07:44:35;;;;;;;10.20;8.80;;;;;;;;;;5015352;28;19918;-83
2022/08/10 07:47:03;;;;;;;11.18;9.30;;;;;;;;;;5010118;28;20053;-83
2022/08/10 07:49:34;;;;;;;10.43;8.60;;;;;;;;;;5014560;28;20473;-85
2022/08/10 07:52:05;;;;;;;10.50;8.73;;;;;;;;;;5012581;28;20536;-87
2022/08/10 07:54:35;;;;;;;10.20;8.43;;;;;;;;;;5009993;28;20041;-86
2022/08/10 07:57:02;;;;;;;10.20;7.05;;;;;;;;;;5023018;28;20037;-85
2022/08/10 07:59:36;;;;;;;11.77;7.90;;;;;;;;;;5011925;28;20048;-84
2022/08/10 08:02:05;;;;;;;9.15;6.75;;;;;;;;;;5012427;28;20474;-85
2022/08/10 08:04:32;;;;;;;8.55;7.38;;;;;;;;;;4990946;28;20532;-86
2022/08/10 08:07:03;;;;;;;9.88;8.10;;;;;;;;;;5014383;28;20389;-84
2022/08/10 08:09:30;;;;;;;7.18;6.47;;;;;;;;;;5020602;28;20108;-85
2022/08/10 08:11:57;;;;;;;8.55;6.55;;;;;;;;;;5019012;28;20467;-84
2022/08/10 08:14:25;;;;;;;7.43;6.50;;;;;;;;;;5012739;28;20049;-88
2022/08/10 08:16:52;;;;;;;9.07;7.40;;;;;;;;;;5009059;28;20344;-84
2022/08/10 08:19:18;;;;;;;9.48;6.53;;;;;;;;;;5009670;28;20034;-85
2022/08/10 08:21:45;;;;;;;8.05;5.90;;;;;;;;;;5023209;28;20031;-82
2022/08/10 08:24:13;;;;;;;7.57;5.90;;;;;;;;;;5015071;28;20137;-83
2022/08/10 08:26:40;;;;;;;6.13;5.50;;;;;;;;;;5015126;28;20073;-86
2022/08/10 08:29:08;;;;;;;7.68;5.95;;;;;;;;;;5011284;28;20429;-86
2022/08/10 08:31:34;;;;;;;8.48;6.72;;;;;;;;;;5011549;28;20030;-86
2022/08/10 08:34:01;;;;;;;9.18;6.55;;;;;;;;;;5014689;28;20048;-85
2022/08/10 08:36:28;;;;;;;7.15;6.45;;;;;;;;;;5002719;28;20026;-89
2022/08/10 08:38:54;;;;;;;11.25;6.72;;;;;;;;;;5010829;28;20033;-88
2022/08/10 08:41:19;;;;;;;8.30;7.38;;;;;;;;;;5004464;28;20482;-86
2022/08/10 08:44:02;;;;;;;7.93;6.05;;;;;;;;;;5012605;28;20084;-84
2022/08/10 08:46:42;;;;;;;9.80;6.18;;;;;;;;;;5007321;28;20029;-85
2022/08/10 08:49:46;;;;;;;9.05;6.90;;;;;;;;;;5008345;28;20033;-88
2022/08/10 08:52:34;;;;;;;7.80;6.60;;;;;;;;;;5015360;28;20056;-89
2022/08/10 08:55:02;;;;;;;10.15;5.95;;;;;;;;;;5009682;28;20482;-88
2022/08/10 08:57:56;;;;;;;7.60;6.43;;;;;;;;;;5014180;28;20105;-84
2022/08/10 09:00:27;;;;;;;8.57;7.32;;;;;;;;;;5004811;28;20075;-83
2022/08/10 09:03:40;;;;;;;11.23;7.35;;;;;;;;;;5009022;28;20386;-84
2022/08/10 09:06:08;;;;;;;8.50;7.40;;;;;;;;;;4983221;28;20439;-84
2022/08/10 09:08:57;;;;;;;8.57;6.55;;;;;;;;;;4998538;28;20026;-84
2022/08/10 09:11:41;;;;;;;13.97;9.17;;;;;;;;;;5010619;28;20093;-86
2022/08/10 09:14:20;;;;;;;8.38;7.00;;;;;;;;;;5009906;28;20475;-83
2022/08/10 09:16:52;;;;;;;9.57;7.80;;;;;;;;;;5005112;28;20017;-87
2022/08/10 09:19:46;;;;;;;7.70;6.40;;;;;;;;;;5013467;28;20060;-88
2022/08/10 09:22:39;;;;;;;9.82;7.13;;;;;;;;;;4998976;28;20505;-86
2022/08/10 09:25:21;;;;;;;10.38;7.85;;;;;;;;;;5005666;28;20028;-84
2022/08/10 09:27:53;;;;;;;10.30;7.40;;;;;;;;;;5001202;28;20398;-85
2022/08/10 09:30:29;;;;;;;6.75;6.05;;;;;;;;;;5000314;28;20434;-85
2022/08/10 09:33:06;;;;;;;10.63;7.75;;;;;;;;;;5016213;28;20409;-86
2022/08/10 09:35:40;;;;;;;8.82;7.72;;;;;;;;;;5019107;28;20379;-83
2022/08/10 09:38:17;;;;;;;9.95;7.35;;;;;;;;;;5004541;28;20022;-83
2022/08/10 09:41:01;;;;;;;8.23;7.30;;;;;;;;;;5008675;28;20033;-83
2022/08/10 09:44:03;;;;;;;9.27;7.30;;;;;;;;;;5010387;28;20029;-83
2022/08/10 09:46:49;;;;;;;8.95;7.07;;;;;;;;;;5004336;28;20028;-84
2022/08/10 09:49:18;;;;;;;9.82;6.72;;;;;;;;;;5015400;28;20034;-85
2022/08/10 09:52:00;;;;;;;7.55;6.65;;;;;;;;;;4996894;28;20025;-88
2022/08/10 09:54:35;;;;;;;7.63;6.80;;;;;;;;;;5012922;28;20053;-86
2022/08/10 09:57:10;;;;;;;6.88;6.18;;;;;;;;;;5020881;28;20022;-85
2022/08/10 09:59:51;;;;;;;11.38;7.18;;;;;;;;;;5007913;28;20136;-86
2022/08/10 10:02:26;;;;;;;7.22;6.45;;;;;;;;;;5023327;28;20065;-84
2022/08/10 10:05:21;;;;;;;8.10;6.25;;;;;;;;;;5017527;28;20052;-87
2022/08/10 10:08:03;;;;;;;7.85;5.90;;;;;;;;;;5003210;28;20366;-85
2022/08/10 10:10:51;;;;;;;8.02;6.20;;;;;;;;;;5014477;28;20029;-86
2022/08/10 10:13:30;;;;;;;7.75;6.07;;;;;;;;;;5013192;28;20025;-83
2022/08/10 10:16:06;;;;;;;7.30;5.13;;;;;;;;;;5020769;28;20053;-84
2022/08/10 10:18:48;;;;;;;7.95;4.57;;;;;;;;;;5022195;28;20025;-87
2022/08/10 10:21:42;;;;;;;5.55;4.75;;;;;;;;;;5022939;28;20033;-85
2022/08/10 10:24:41;;;;;;;7.10;6.00;;;;;;;;;;5022663;28;20462;-86
2022/08/10 10:27:32;;;;;;;7.93;4.67;;;;;;;;;;5021638;28;20026;-84
2022/08/10 10:30:10;;;;;;;4.93;4.32;;;;;;;;;;5009990;28;20800;-85
2022/08/10 10:32:54;;;;;;;6.70;4.80;;;;;;;;;;5013004;28;20084;-82
2022/08/10 10:35:31;;;;;;;6.10;4.28;;;;;;;;;;5013034;28;20030;-84
2022/08/10 10:37:58;;;;;;;5.22;4.60;;;;;;;;;;5018625;28;20026;-87
2022/08/10 10:40:27;;;;;;;7.82;3.90;;;;;;;;;;5022573;28;20033;-85
2022/08/10 10:43:02;;;;;;;6.70;4.57;;;;;;;;;;5018262;28;20030;-84
2022/08/10 10:45:43;;;;;;;5.50;3.88;;;;;;;;;;5012824;28;20494;-88
2022/08/10 10:48:20;;;;;;;4.50;3.83;;;;;;;;;;5015131;28;20028;-88
2022/08/10 10:51:01;;;;;;;7.03;4.15;;;;;;;;;;5014841;28;20120;-87
2022/08/10 10:53:32;;;;;;;4.38;3.97;;;;;;;;;;5013668;28;20108;-84
2022/08/10 10:56:24;;;;;;;4.90;4.32;;;;;;;;;;5023170;28;20021;-83
2022/08/10 10:59:02;;;;;;;6.47;4.00;;;;;;;;;;5005237;28;20064;-87
2022/08/10 11:01:54;;;;;;;4.95;4.03;;;;;;;;;;5017998;28;20068;-85
2022/08/10 11:04:26;;;;;;;5.57;4.38;;;;;;;;;;5010471;28;20030;-83
2022/08/10 11:07:16;;;;;;;5.97;3.95;;;;;;;;;;5021163;28;20025;-83
2022/08/10 11:09:49;;;;;;;6.65;4.45;;;;;;;;;;5018712;28;20449;-85
2022/08/10 11:12:18;;;;;;;5.47;4.50;;;;;;;;;;5003868;28;20061;-84
2022/08/10 11:14:51;;;;;;;5.00;4.22;;;;;;;;;;5004179;28;20053;-87
2022/08/10 11:17:28;;;;;;;4.88;4.38;;;;;;;;;;4994249;28;20105;-84
2022/08/10 11:20:33;;;;;;;6.40;5.03;;;;;;;;;;5000531;28;20034;-85
2022/08/10 11:23:13;;;;;;;4.55;4.07;;;;;;;;;;4965650;28;20030;-84
2022/08/10 11:25:41;;;;;;;;;;;;;;;;;;5013834;28;20034;-83
2022/08/10 11:28:19;;;;;;;4.90;4.20;;;;;;;;;;5019491;28;19913;-87
2022/08/10 11:30:56;;;;;;;6.57;4.40;;;;;;;;;;5017385;28;20028;-86
2022/08/10 11:33:41;;;;;;;7.68;4.68;;;;;;;;;;5021071;28;20037;-83
2022/08/10 11:36:19;;;;;;;5.18;3.92;;;;;;;;;;5019999;28;20036;-85
2022/08/10 11:39:14;;;;;;;5.07;4.53;;;;;;;;;;5013244;28;20076;-82
2022/08/10 11:41:43;;;;;;;5.93;4.07;;;;;;;;;;5017134;28;20021;-83
2022/08/10 11:44:17;;;;;;;10.25;4.55;;;;;;;;;;5022638;28;20026;-83
2022/08/10 11:47:08;;;;;;;7.25;4.30;;;;;;;;;;5009665;28;20032;-85
2022/08/10 11:49:50;;;;;;;4.97;4.18;;;;;;;;;;5015340;28;20061;-84
2022/08/10 11:52:21;;;;;;;5.20;4.53;;;;;;;;;;5023572;28;20409;-83
2022/08/10 11:54:58;;;;;;;5.15;4.35;;;;;;;;;;5012618;28;20050;-83
2022/08/10 11:57:29;;;;;;;8.07;4.47;;;;;;;;;;5001503;28;20030;-86
2022/08/10 11:59:57;;;;;;;5.60;3.97;;;;;;;;;;5015823;28;20096;-84
2022/08/10 12:02:32;;;;;;;4.40;3.92;;;;;;;;;;5019227;28;20386;-83
2022/08/10 12:05:22;;;;;;;7.40;4.10;;;;;;;;;;5017675;28;20381;-88
2022/08/10 12:07:54;;;;;;;7.00;4.60;;;;;;;;;;5004137;28;20105;-85
2022/08/10 12:10:22;;;;;;;6.13;4.45;;;;;;;;;;5010746;28;20029;-87
2022/08/10 12:13:15;;;;;;;5.63;4.20;;;;;;;;;;5007578;28;20058;-84
2022/08/10 12:15:57;;;;;;;4.78;4.25;;;;;;;;;;5020549;28;20036;-85
2022/08/10 12:19:00;;;;;;;5.50;4.22;;;;;;;;;;4998656;28;20022;-83
2022/08/10 12:21:31;;;;;;;5.90;4.18;;;;;;;;;;4988612;28;20041;-82
2022/08/10 12:24:04;;;;;;;6.53;4.65;;;;;;;;;;5009860;28;20474;-83
2022/08/10 12:26:38;;;;;;;6.90;5.75;;;;;;;;;;5015609;28;20386;-84
2022/08/10 12:29:17;;;;;;;7.03;4.47;;;;;;;;;;5015840;28;20113;-84
2022/08/10 12:31:54;;;;;;;5.30;4.03;;;;;;;;;;5008260;28;20814;-83
2022/08/10 12:34:33;;;;;;;6.72;4.88;;;;;;;;;;5017252;28;20504;-86
2022/08/10 12:37:21;;;;;;;7.53;4.67;;;;;;;;;;5017476;28;20104;-87
2022/08/10 12:40:08;;;;;;;6.38;4.20;;;;;;;;;;5019964;28;20105;-86
2022/08/10 12:42:55;;;;;;;7.88;4.43;;;;;;;;;;5002986;28;20517;-85
2022/08/10 12:45:39;;;;;;;8.07;5.25;;;;;;;;;;5012862;28;20037;-86
2022/08/10 12:48:15;;;;;;;6.40;5.65;;;;;;;;;;5012809;28;20034;-85
2022/08/10 12:50:45;;;;;;;8.13;6.13;;;;;;;;;;5009856;28;20398;-88
2022/08/10 12:53:29;;;;;;;8.38;6.78;;;;;;;;;;5009707;28;20060;-83
2022/08/10 12:55:56;;;;;;;6.78;6.07;;;;;;;;;;5014834;28;20036;-86
2022/08/10 12:58:22;;;;;;;12.30;6.47;;;;;;;;;;4987436;28;20359;-87
2022/08/10 13:00:51;;;;;;;7.45;5.95;;;;;;;;;;5001889;28;20032;-85
2022/08/10 13:03:21;;;;;;;6.68;5.70;;;;;;;;;;5004594;28;20029;-84
2022/08/10 13:05:49;;;;;;;8.35;6.05;;;;;;;;;;5012526;28;20491;-85
2022/08/10 13:11:02;;;;;;;7.43;5.57;;;;;;;;;;5011214;28;20066;-87
2022/08/10 13:13:32;;;;;;;7.38;4.97;;;;;;;;;;5012226;28;20025;-84
2022/08/10 13:15:58;;;;;;;8.20;5.50;;;;;;;;;;5019643;28;20458;-82
2022/08/10 13:18:27;;;;;;;6.15;5.25;;;;;;;;;;5020499;28;20030;-87
2022/08/10 13:20:54;;;;;;;9.50;5.97;;;;;;;;;;5008184;28;20034;-88
2022/08/10 13:23:25;;;;;;;8.27;6.07;;;;;;;;;;5023904;28;20271;-85
2022/08/10 13:25:53;;;;;;;6.97;5.25;;;;;;;;;;5005316;28;20413;-88
2022/08/10 13:28:32;;;;;;;10.48;5.47;;;;;;;;;;5007281;28;20029;-83
2022/08/10 13:31:04;;;;;;;7.80;5.10;;;;;;;;;;5015091;28;20502;-90
2022/08/10 13:33:32;;;;;;;7.65;5.28;;;;;;;;;;5004507;28;20831;-86
2022/08/10 13:36:01;;;;;;;6.10;4.75;;;;;;;;;;5003723;28;20044;-85
2022/08/10 13:38:28;;;;;;;6.35;5.22;;;;;;;;;;5017731;28;20485;-88
2022/08/10 13:40:56;;;;;;;7.45;5.38;;;;;;;;;;5023208;28;20026;-87
2022/08/10 13:43:24;;;;;;;5.80;4.68;;;;;;;;;;5021898;28;20423;-86
2022/08/10 13:45:51;;;;;;;6.20;5.03;;;;;;;;;;5020969;28;20061;-90
2022/08/10 13:48:20;;;;;;;6.20;4.68;;;;;;;;;;5012173;28;20027;-84
2022/08/10 13:50:47;;;;;;;5.45;4.88;;;;;;;;;;5009317;28;20029;-85
2022/08/10 13:53:15;;;;;;;5.10;4.60;;;;;;;;;;5013712;28;20052;-84
2022/08/10 13:55:48;;;;;;;6.05;4.97;;;;;;;;;;5001381;28;20029;-87
2022/08/10 13:58:15;;;;;;;5.93;5.18;;;;;;;;;;4999601;28;20116;-84
2022/08/10 14:00:42;;;;;;;6.28;4.97;;;;;;;;;;5003353;28;20053;-84
2022/08/10 14:03:15;;;;;;;7.65;5.03;;;;;;;;;;5003037;28;20125;-83
2022/08/10 14:05:53;;;;;;;5.93;4.72;;;;;;;;;;5015016;28;20026;-85
2022/08/10 14:08:29;;;;;;;6.32;4.90;;;;;;;;;;5005078;28;20474;-88
2022/08/10 14:11:00;;;;;;;10.32;5.05;;;;;;;;;;5010309;28;20029;-84
2022/08/10 14:13:26;;;;;;;7.22;5.03;;;;;;;;;;5018244;28;20041;-84
2022/08/10 14:15:53;;;;;;;7.50;5.60;;;;;;;;;;5021424;28;20545;-84
2022/08/10 14:18:19;;;;;;;9.15;5.38;;;;;;;;;;5013788;28;20385;-87
2022/08/10 14:20:47;;;;;;;7.22;5.10;;;;;;;;;;5013168;28;20023;-85
2022/08/10 14:23:13;;;;;;;5.88;5.15;;;;;;;;;;5016753;28;20111;-85
2022/08/10 14:25:59;;;;;;;7.03;4.63;;;;;;;;;;5008697;28;20037;-85
2022/08/10 14:28:42;;;;;;;6.07;4.80;;;;;;;;;;5017466;28;20076;-85
2022/08/10 14:31:14;;;;;;;6.50;5.03;;;;;;;;;;5019996;28;20040;-86
2022/08/10 14:33:43;;;;;;;5.57;4.75;;;;;;;;;;5016235;28;20037;-85
2022/08/10 14:36:10;;;;;;;11.38;4.82;;;;;;;;;;4998940;28;20026;-84
2022/08/10 14:38:41;;;;;;;5.63;4.50;;;;;;;;;;5019577;28;20116;-85
2022/08/10 14:41:16;;;;;;;8.77;5.05;;;;;;;;;;5016463;28;20025;-85
2022/08/10 14:43:41;;;;;;;5.13;4.60;;;;;;;;;;5015501;28;20103;-84
2022/08/10 14:46:10;;;;;;;6.43;4.63;;;;;;;;;;5007145;28;20062;-84
2022/08/10 14:48:41;;;;;;;5.80;5.27;;;;;;;;;;5010092;28;20485;-83
2022/08/10 14:51:09;;;;;;;6.40;4.72;;;;;;;;;;5018101;28;20080;-86
2022/08/10 14:53:37;;;;;;;6.65;5.00;;;;;;;;;;5010492;28;20038;-84
2022/08/10 14:56:09;;;;;;;4.88;4.25;;;;;;;;;;5023524;28;20028;-85
2022/08/10 14:58:38;;;;;;;6.05;4.50;;;;;;;;;;5024369;28;20109;-85
2022/08/10 15:01:05;;;;;;;6.53;4.65;;;;;;;;;;5011521;28;20030;-85
2022/08/10 15:03:33;;;;;;;7.78;4.60;;;;;;;;;;5016568;28;20456;-85
2022/08/10 15:06:02;;;;;;;12.23;4.85;;;;;;;;;;5018371;28;20058;-86
2022/08/10 15:08:28;;;;;;;6.87;4.27;;;;;;;;;;4990459;28;20019;-86
2022/08/10 15:10:56;;;;;;;7.63;5.55;;;;;;;;;;5013763;28;20041;-85
2022/08/10 15:13:23;;;;;;;8.30;5.05;;;;;;;;;;5010474;28;20041;-85
2022/08/10 15:15:54;;;;;;;12.30;5.25;;;;;;;;;;5006233;28;20546;-85
2022/08/10 15:18:22;;;;;;;9.93;6.10;;;;;;;;;;5002857;28;20485;-85